sensor_id;sensor_type;location;lat;lon;timestamp;temperature;humidity
75262;DHT22;63859;51.064;4.580;2023-01-08T00:01:10;10.60;99.90
75262;DHT22;63859;51.064;4.580;2023-01-08T00:03:36;10.60;99.90
75262;DHT22;63859;51.064;4.580;2023-01-08T00:06:04;10.60;99.90
75262;DHT22;63859;51.064;4.580;2023-01-08T00:08:30;10.60;99.90
75262;DHT22;63859;51.064;4.580;2023-01-08T00:10:57;10.70;99.90
75262;DHT22;63859;51.064;4.580;2023-01-08T00:13:23;10.60;99.90
75262;DHT22;63859;51.064;4.580;2023-01-08T00:15:49;10.60;99.90
75262;DHT22;63859;51.064;4.580;2023-01-08T00:18:14;10.70;99.90
75262;DHT22;63859;51.064;4.580;2023-01-08T00:20:41;10.60;99.90
75262;DHT22;63859;51.064;4.580;2023-01-08T00:23:17;10.60;99.90
75262;DHT22;63859;51.064;4.580;2023-01-08T00:25:43;10.60;99.90
75262;DHT22;63859;51.064;4.580;2023-01-08T00:28:09;10.70;99.90
75262;DHT22;63859;51.064;4.580;2023-01-08T00:30:36;10.60;99.90
75262;DHT22;63859;51.064;4.580;2023-01-08T00:33:02;10.60;99.90
75262;DHT22;63859;51.064;4.580;2023-01-08T00:35:27;10.40;99.90
75262;DHT22;63859;51.064;4.580;2023-01-08T00:37:53;10.20;99.90
75262;DHT22;63859;51.064;4.580;2023-01-08T00:40:19;9.90;99.90
75262;DHT22;63859;51.064;4.580;2023-01-08T00:42:44;9.70;99.90
75262;DHT22;63859;51.064;4.580;2023-01-08T00:45:10;9.50;99.90
75262;DHT22;63859;51.064;4.580;2023-01-08T00:47:36;9.40;99.90
75262;DHT22;63859;51.064;4.580;2023-01-08T00:50:01;9.30;99.90
75262;DHT22;63859;51.064;4.580;2023-01-08T00:52:27;9.10;99.90
75262;DHT22;63859;51.064;4.580;2023-01-08T00:54:53;9.00;99.90
75262;DHT22;63859;51.064;4.580;2023-01-08T00:57:18;9.00;99.90
75262;DHT22;63859;51.064;4.580;2023-01-08T00:59:44;8.90;99.90
75262;DHT22;63859;51.064;4.580;2023-01-08T01:02:10;8.90;99.90
75262;DHT22;63859;51.064;4.580;2023-01-08T01:04:36;8.80;99.90
75262;DHT22;63859;51.064;4.580;2023-01-08T01:07:02;8.80;99.90
75262;DHT22;63859;51.064;4.580;2023-01-08T01:09:27;8.70;99.90
75262;DHT22;63859;51.064;4.580;2023-01-08T01:11:53;8.70;99.90
75262;DHT22;63859;51.064;4.580;2023-01-08T01:14:19;8.70;99.90
75262;DHT22;63859;51.064;4.580;2023-01-08T01:16:44;8.70;99.90
75262;DHT22;63859;51.064;4.580;2023-01-08T01:19:13;8.60;99.90
75262;DHT22;63859;51.064;4.580;2023-01-08T01:21:39;8.60;99.90
75262;DHT22;63859;51.064;4.580;2023-01-08T01:24:05;8.60;99.90
75262;DHT22;63859;51.064;4.580;2023-01-08T01:26:32;8.70;99.90
75262;DHT22;63859;51.064;4.580;2023-01-08T01:28:58;8.70;99.90
75262;DHT22;63859;51.064;4.580;2023-01-08T01:31:26;8.70;99.90
75262;DHT22;63859;51.064;4.580;2023-01-08T01:33:52;8.70;99.90
75262;DHT22;63859;51.064;4.580;2023-01-08T01:36:19;8.80;99.90
75262;DHT22;63859;51.064;4.580;2023-01-08T01:38:48;8.80;99.90
75262;DHT22;63859;51.064;4.580;2023-01-08T01:41:30;8.80;99.90
75262;DHT22;63859;51.064;4.580;2023-01-08T01:44:43;8.80;99.90
75262;DHT22;63859;51.064;4.580;2023-01-08T01:46:43;8.70;99.90
75262;DHT22;63859;51.064;4.580;2023-01-08T01:49:11;8.80;99.90
75262;DHT22;63859;51.064;4.580;2023-01-08T01:51:42;8.80;99.90
75262;DHT22;63859;51.064;4.580;2023-01-08T01:54:10;8.80;99.90
75262;DHT22;63859;51.064;4.580;2023-01-08T01:56:37;8.70;99.90
75262;DHT22;63859;51.064;4.580;2023-01-08T01:59:03;8.80;99.90
75262;DHT22;63859;51.064;4.580;2023-01-08T02:01:30;8.80;99.90
75262;DHT22;63859;51.064;4.580;2023-01-08T02:03:56;8.80;99.90
75262;DHT22;63859;51.064;4.580;2023-01-08T02:12:29;8.70;99.90
75262;DHT22;63859;51.064;4.580;2023-01-08T02:15:03;8.70;99.90
75262;DHT22;63859;51.064;4.580;2023-01-08T02:17:38;8.70;99.90
75262;DHT22;63859;51.064;4.580;2023-01-08T02:20:26;8.80;99.90
75262;DHT22;63859;51.064;4.580;2023-01-08T02:28:19;8.70;99.90
75262;DHT22;63859;51.064;4.580;2023-01-08T02:30:46;8.80;99.90
75262;DHT22;63859;51.064;4.580;2023-01-08T02:33:12;8.90;99.90
75262;DHT22;63859;51.064;4.580;2023-01-08T02:35:44;8.80;99.90
75262;DHT22;63859;51.064;4.580;2023-01-08T02:38:15;8.80;99.90
75262;DHT22;63859;51.064;4.580;2023-01-08T02:41:01;8.80;99.90
75262;DHT22;63859;51.064;4.580;2023-01-08T02:43:40;8.80;99.90
75262;DHT22;63859;51.064;4.580;2023-01-08T02:46:09;8.80;99.90
75262;DHT22;63859;51.064;4.580;2023-01-08T02:48:41;8.80;99.90
75262;DHT22;63859;51.064;4.580;2023-01-08T02:53:49;8.90;99.90
75262;DHT22;63859;51.064;4.580;2023-01-08T02:56:29;8.90;99.90
75262;DHT22;63859;51.064;4.580;2023-01-08T02:58:57;8.90;99.90
75262;DHT22;63859;51.064;4.580;2023-01-08T03:01:24;8.90;99.90
75262;DHT22;63859;51.064;4.580;2023-01-08T03:03:57;8.90;99.90
75262;DHT22;63859;51.064;4.580;2023-01-08T03:06:24;9.00;99.90
75262;DHT22;63859;51.064;4.580;2023-01-08T03:08:52;9.00;99.90
75262;DHT22;63859;51.064;4.580;2023-01-08T03:11:19;9.10;99.90
75262;DHT22;63859;51.064;4.580;2023-01-08T03:16:37;9.10;99.90
75262;DHT22;63859;51.064;4.580;2023-01-08T03:19:10;9.10;99.90
75262;DHT22;63859;51.064;4.580;2023-01-08T03:21:39;9.10;99.90
75262;DHT22;63859;51.064;4.580;2023-01-08T03:24:05;9.10;99.90
75262;DHT22;63859;51.064;4.580;2023-01-08T03:26:32;9.10;99.90
75262;DHT22;63859;51.064;4.580;2023-01-08T03:28:59;9.10;99.90
75262;DHT22;63859;51.064;4.580;2023-01-08T03:31:27;9.00;99.90
75262;DHT22;63859;51.064;4.580;2023-01-08T03:33:54;9.00;99.90
75262;DHT22;63859;51.064;4.580;2023-01-08T03:36:24;9.10;99.90
75262;DHT22;63859;51.064;4.580;2023-01-08T03:39:17;9.00;99.90
75262;DHT22;63859;51.064;4.580;2023-01-08T03:41:45;9.00;99.90
75262;DHT22;63859;51.064;4.580;2023-01-08T03:44:12;9.00;99.90
75262;DHT22;63859;51.064;4.580;2023-01-08T03:46:42;9.00;99.90
75262;DHT22;63859;51.064;4.580;2023-01-08T03:49:09;9.00;99.90
75262;DHT22;63859;51.064;4.580;2023-01-08T03:51:43;9.10;99.90
75262;DHT22;63859;51.064;4.580;2023-01-08T03:54:14;8.90;99.90
75262;DHT22;63859;51.064;4.580;2023-01-08T03:56:40;9.00;99.90
75262;DHT22;63859;51.064;4.580;2023-01-08T03:59:06;9.00;99.90
75262;DHT22;63859;51.064;4.580;2023-01-08T04:01:31;9.00;99.90
75262;DHT22;63859;51.064;4.580;2023-01-08T04:03:57;9.00;99.90
75262;DHT22;63859;51.064;4.580;2023-01-08T04:06:23;9.00;99.90
75262;DHT22;63859;51.064;4.580;2023-01-08T04:08:48;9.00;99.90
75262;DHT22;63859;51.064;4.580;2023-01-08T04:11:15;9.00;99.90
75262;DHT22;63859;51.064;4.580;2023-01-08T04:13:41;8.90;99.90
75262;DHT22;63859;51.064;4.580;2023-01-08T04:16:06;9.00;99.90
75262;DHT22;63859;51.064;4.580;2023-01-08T04:18:32;9.00;99.90
75262;DHT22;63859;51.064;4.580;2023-01-08T04:20:58;9.00;99.90
75262;DHT22;63859;51.064;4.580;2023-01-08T04:23:24;9.00;99.90
75262;DHT22;63859;51.064;4.580;2023-01-08T04:25:51;9.00;99.90
75262;DHT22;63859;51.064;4.580;2023-01-08T04:28:16;8.90;99.90
75262;DHT22;63859;51.064;4.580;2023-01-08T04:30:42;9.00;99.90
75262;DHT22;63859;51.064;4.580;2023-01-08T04:33:08;8.90;99.90
75262;DHT22;63859;51.064;4.580;2023-01-08T04:35:33;8.90;99.90
75262;DHT22;63859;51.064;4.580;2023-01-08T04:37:59;8.90;99.90
75262;DHT22;63859;51.064;4.580;2023-01-08T04:40:25;8.90;99.90
75262;DHT22;63859;51.064;4.580;2023-01-08T04:42:50;8.80;99.90
75262;DHT22;63859;51.064;4.580;2023-01-08T04:45:16;8.80;99.90
75262;DHT22;63859;51.064;4.580;2023-01-08T04:47:41;8.70;99.90
75262;DHT22;63859;51.064;4.580;2023-01-08T04:50:07;8.60;99.90
75262;DHT22;63859;51.064;4.580;2023-01-08T04:52:33;8.60;99.90
75262;DHT22;63859;51.064;4.580;2023-01-08T04:54:58;8.60;99.90
75262;DHT22;63859;51.064;4.580;2023-01-08T04:57:25;8.40;99.90
75262;DHT22;63859;51.064;4.580;2023-01-08T04:59:51;8.50;99.90
75262;DHT22;63859;51.064;4.580;2023-01-08T05:02:16;8.40;99.90
75262;DHT22;63859;51.064;4.580;2023-01-08T05:04:42;8.40;99.90
75262;DHT22;63859;51.064;4.580;2023-01-08T05:07:07;8.40;99.90
75262;DHT22;63859;51.064;4.580;2023-01-08T05:09:33;8.30;99.90
75262;DHT22;63859;51.064;4.580;2023-01-08T05:11:58;8.30;99.90
75262;DHT22;63859;51.064;4.580;2023-01-08T05:14:24;8.20;99.90
75262;DHT22;63859;51.064;4.580;2023-01-08T05:16:50;8.20;99.90
75262;DHT22;63859;51.064;4.580;2023-01-08T05:19:15;8.20;99.90
75262;DHT22;63859;51.064;4.580;2023-01-08T05:21:41;8.10;99.90
75262;DHT22;63859;51.064;4.580;2023-01-08T05:24:07;8.10;99.90
75262;DHT22;63859;51.064;4.580;2023-01-08T05:26:33;8.00;99.90
75262;DHT22;63859;51.064;4.580;2023-01-08T05:28:59;8.00;99.90
75262;DHT22;63859;51.064;4.580;2023-01-08T05:31:25;8.00;99.90
75262;DHT22;63859;51.064;4.580;2023-01-08T05:33:50;7.90;99.90
75262;DHT22;63859;51.064;4.580;2023-01-08T05:36:16;7.90;99.90
75262;DHT22;63859;51.064;4.580;2023-01-08T05:38:42;7.80;99.90
75262;DHT22;63859;51.064;4.580;2023-01-08T05:41:09;7.80;99.90
75262;DHT22;63859;51.064;4.580;2023-01-08T05:43:35;7.90;99.90
75262;DHT22;63859;51.064;4.580;2023-01-08T05:46:02;7.80;99.90
75262;DHT22;63859;51.064;4.580;2023-01-08T05:48:29;7.70;99.90
75262;DHT22;63859;51.064;4.580;2023-01-08T05:50:55;7.70;99.90
75262;DHT22;63859;51.064;4.580;2023-01-08T05:53:21;7.70;99.90
75262;DHT22;63859;51.064;4.580;2023-01-08T05:55:47;7.50;99.90
75262;DHT22;63859;51.064;4.580;2023-01-08T05:58:13;7.60;99.90
75262;DHT22;63859;51.064;4.580;2023-01-08T06:00:38;7.60;99.90
75262;DHT22;63859;51.064;4.580;2023-01-08T06:03:05;7.60;99.90
75262;DHT22;63859;51.064;4.580;2023-01-08T06:05:31;7.60;99.90
75262;DHT22;63859;51.064;4.580;2023-01-08T06:07:58;7.50;99.90
75262;DHT22;63859;51.064;4.580;2023-01-08T06:10:24;7.50;99.90
75262;DHT22;63859;51.064;4.580;2023-01-08T06:12:49;7.50;99.90
75262;DHT22;63859;51.064;4.580;2023-01-08T06:15:15;7.40;99.90
75262;DHT22;63859;51.064;4.580;2023-01-08T06:17:41;7.40;99.90
75262;DHT22;63859;51.064;4.580;2023-01-08T06:20:07;7.40;99.90
75262;DHT22;63859;51.064;4.580;2023-01-08T06:22:33;7.40;99.90
75262;DHT22;63859;51.064;4.580;2023-01-08T06:24:59;7.40;99.90
75262;DHT22;63859;51.064;4.580;2023-01-08T06:27:25;7.30;99.90
75262;DHT22;63859;51.064;4.580;2023-01-08T06:29:50;7.30;99.90
75262;DHT22;63859;51.064;4.580;2023-01-08T06:32:16;7.30;99.90
75262;DHT22;63859;51.064;4.580;2023-01-08T06:34:42;7.30;99.90
75262;DHT22;63859;51.064;4.580;2023-01-08T06:37:07;7.20;99.90
75262;DHT22;63859;51.064;4.580;2023-01-08T06:39:33;7.20;99.90
75262;DHT22;63859;51.064;4.580;2023-01-08T06:41:58;7.20;99.90
75262;DHT22;63859;51.064;4.580;2023-01-08T06:44:24;7.30;99.90
75262;DHT22;63859;51.064;4.580;2023-01-08T06:46:50;7.30;99.90
75262;DHT22;63859;51.064;4.580;2023-01-08T06:49:15;7.20;99.90
75262;DHT22;63859;51.064;4.580;2023-01-08T06:51:42;7.00;99.90
75262;DHT22;63859;51.064;4.580;2023-01-08T06:54:08;7.20;99.90
75262;DHT22;63859;51.064;4.580;2023-01-08T06:56:34;7.20;99.90
75262;DHT22;63859;51.064;4.580;2023-01-08T06:58:59;7.20;99.90
75262;DHT22;63859;51.064;4.580;2023-01-08T07:01:25;7.30;99.90
75262;DHT22;63859;51.064;4.580;2023-01-08T07:03:51;7.20;99.90
75262;DHT22;63859;51.064;4.580;2023-01-08T07:06:21;7.10;99.90
75262;DHT22;63859;51.064;4.580;2023-01-08T07:08:47;7.30;99.90
75262;DHT22;63859;51.064;4.580;2023-01-08T07:11:14;7.10;99.90
75262;DHT22;63859;51.064;4.580;2023-01-08T07:13:39;7.10;99.90
75262;DHT22;63859;51.064;4.580;2023-01-08T07:16:06;7.20;99.90
75262;DHT22;63859;51.064;4.580;2023-01-08T07:18:33;7.20;99.90
75262;DHT22;63859;51.064;4.580;2023-01-08T07:20:59;7.20;99.90
75262;DHT22;63859;51.064;4.580;2023-01-08T07:23:24;7.20;99.90
75262;DHT22;63859;51.064;4.580;2023-01-08T07:25:50;7.20;99.90
75262;DHT22;63859;51.064;4.580;2023-01-08T07:28:15;7.20;99.90
75262;DHT22;63859;51.064;4.580;2023-01-08T07:30:41;7.30;99.90
75262;DHT22;63859;51.064;4.580;2023-01-08T07:33:07;7.30;99.90
75262;DHT22;63859;51.064;4.580;2023-01-08T07:35:33;7.30;99.90
75262;DHT22;63859;51.064;4.580;2023-01-08T07:38:00;7.30;99.90
75262;DHT22;63859;51.064;4.580;2023-01-08T07:40:25;7.30;99.90
75262;DHT22;63859;51.064;4.580;2023-01-08T07:42:59;7.30;99.90
75262;DHT22;63859;51.064;4.580;2023-01-08T07:45:26;7.30;99.90
75262;DHT22;63859;51.064;4.580;2023-01-08T07:47:51;7.30;99.90
75262;DHT22;63859;51.064;4.580;2023-01-08T07:50:17;7.30;99.90
75262;DHT22;63859;51.064;4.580;2023-01-08T07:52:43;7.30;99.90
75262;DHT22;63859;51.064;4.580;2023-01-08T07:55:08;7.40;99.90
75262;DHT22;63859;51.064;4.580;2023-01-08T07:57:34;7.40;99.90
75262;DHT22;63859;51.064;4.580;2023-01-08T08:00:00;7.40;99.90
75262;DHT22;63859;51.064;4.580;2023-01-08T08:02:25;7.40;99.90
75262;DHT22;63859;51.064;4.580;2023-01-08T08:04:51;7.40;99.90
75262;DHT22;63859;51.064;4.580;2023-01-08T08:07:16;7.50;99.90
75262;DHT22;63859;51.064;4.580;2023-01-08T08:09:42;7.40;99.90
75262;DHT22;63859;51.064;4.580;2023-01-08T08:12:08;7.40;99.90
75262;DHT22;63859;51.064;4.580;2023-01-08T08:14:33;7.40;99.90
75262;DHT22;63859;51.064;4.580;2023-01-08T08:16:59;7.40;99.90
75262;DHT22;63859;51.064;4.580;2023-01-08T08:19:25;7.40;99.90
75262;DHT22;63859;51.064;4.580;2023-01-08T08:21:51;7.40;99.90
75262;DHT22;63859;51.064;4.580;2023-01-08T08:24:16;7.40;99.90
75262;DHT22;63859;51.064;4.580;2023-01-08T08:26:42;7.40;99.90
75262;DHT22;63859;51.064;4.580;2023-01-08T08:29:07;7.40;99.90
75262;DHT22;63859;51.064;4.580;2023-01-08T08:31:33;7.40;99.90
75262;DHT22;63859;51.064;4.580;2023-01-08T08:33:59;7.40;99.90
75262;DHT22;63859;51.064;4.580;2023-01-08T08:36:30;7.30;99.90
75262;DHT22;63859;51.064;4.580;2023-01-08T08:38:56;7.30;99.90
75262;DHT22;63859;51.064;4.580;2023-01-08T08:41:22;7.50;99.90
75262;DHT22;63859;51.064;4.580;2023-01-08T08:43:47;7.30;99.90
75262;DHT22;63859;51.064;4.580;2023-01-08T08:46:16;7.40;99.90
75262;DHT22;63859;51.064;4.580;2023-01-08T08:48:43;7.40;99.90
75262;DHT22;63859;51.064;4.580;2023-01-08T08:51:10;7.40;99.90
75262;DHT22;63859;51.064;4.580;2023-01-08T08:53:35;7.50;99.90
75262;DHT22;63859;51.064;4.580;2023-01-08T08:56:01;7.50;99.90
75262;DHT22;63859;51.064;4.580;2023-01-08T08:58:26;7.50;99.90
75262;DHT22;63859;51.064;4.580;2023-01-08T09:00:52;7.50;99.90
75262;DHT22;63859;51.064;4.580;2023-01-08T09:03:18;7.50;99.90
75262;DHT22;63859;51.064;4.580;2023-01-08T09:05:43;7.50;99.90
75262;DHT22;63859;51.064;4.580;2023-01-08T09:08:10;7.50;99.90
75262;DHT22;63859;51.064;4.580;2023-01-08T09:10:37;7.60;99.90
75262;DHT22;63859;51.064;4.580;2023-01-08T09:13:04;7.60;99.90
75262;DHT22;63859;51.064;4.580;2023-01-08T09:15:30;7.60;99.90
75262;DHT22;63859;51.064;4.580;2023-01-08T09:17:56;7.80;99.90
75262;DHT22;63859;51.064;4.580;2023-01-08T09:20:23;7.60;99.90
75262;DHT22;63859;51.064;4.580;2023-01-08T09:22:48;7.60;99.90
75262;DHT22;63859;51.064;4.580;2023-01-08T09:25:14;7.60;99.90
75262;DHT22;63859;51.064;4.580;2023-01-08T09:27:40;7.70;99.90
75262;DHT22;63859;51.064;4.580;2023-01-08T09:30:06;7.80;99.90
75262;DHT22;63859;51.064;4.580;2023-01-08T09:32:31;7.70;99.90
75262;DHT22;63859;51.064;4.580;2023-01-08T09:34:57;7.70;99.90
75262;DHT22;63859;51.064;4.580;2023-01-08T09:37:23;7.80;99.90
75262;DHT22;63859;51.064;4.580;2023-01-08T09:39:49;7.90;99.90
75262;DHT22;63859;51.064;4.580;2023-01-08T09:42:15;7.90;99.90
75262;DHT22;63859;51.064;4.580;2023-01-08T09:44:43;7.90;99.90
75262;DHT22;63859;51.064;4.580;2023-01-08T09:47:30;8.00;99.90
75262;DHT22;63859;51.064;4.580;2023-01-08T09:50:03;8.00;99.90
75262;DHT22;63859;51.064;4.580;2023-01-08T09:52:29;8.10;99.90
75262;DHT22;63859;51.064;4.580;2023-01-08T09:54:55;8.20;99.90
75262;DHT22;63859;51.064;4.580;2023-01-08T09:57:21;8.20;99.90
75262;DHT22;63859;51.064;4.580;2023-01-08T09:59:48;8.30;99.90
75262;DHT22;63859;51.064;4.580;2023-01-08T10:02:21;8.30;99.90
75262;DHT22;63859;51.064;4.580;2023-01-08T10:04:58;8.40;99.90
75262;DHT22;63859;51.064;4.580;2023-01-08T10:07:26;8.40;99.90
75262;DHT22;63859;51.064;4.580;2023-01-08T10:09:52;8.50;99.90
75262;DHT22;63859;51.064;4.580;2023-01-08T10:12:27;8.50;99.90
75262;DHT22;63859;51.064;4.580;2023-01-08T10:14:58;8.50;99.90
75262;DHT22;63859;51.064;4.580;2023-01-08T10:17:50;8.60;99.90
75262;DHT22;63859;51.064;4.580;2023-01-08T10:20:20;8.70;99.90
75262;DHT22;63859;51.064;4.580;2023-01-08T10:22:47;8.80;99.90
75262;DHT22;63859;51.064;4.580;2023-01-08T10:25:21;8.80;99.90
75262;DHT22;63859;51.064;4.580;2023-01-08T10:28:00;8.90;99.90
75262;DHT22;63859;51.064;4.580;2023-01-08T10:33:06;8.90;99.90
75262;DHT22;63859;51.064;4.580;2023-01-08T10:35:38;8.90;99.90
75262;DHT22;63859;51.064;4.580;2023-01-08T10:38:03;9.00;99.90
75262;DHT22;63859;51.064;4.580;2023-01-08T10:40:38;9.00;99.90
75262;DHT22;63859;51.064;4.580;2023-01-08T10:43:18;9.10;99.90
75262;DHT22;63859;51.064;4.580;2023-01-08T10:46:03;9.10;99.90
75262;DHT22;63859;51.064;4.580;2023-01-08T10:48:44;9.10;99.90
75262;DHT22;63859;51.064;4.580;2023-01-08T10:51:20;9.10;99.90
75262;DHT22;63859;51.064;4.580;2023-01-08T10:53:46;9.20;99.90
75262;DHT22;63859;51.064;4.580;2023-01-08T10:56:21;9.20;99.90
75262;DHT22;63859;51.064;4.580;2023-01-08T10:58:47;9.20;99.90
75262;DHT22;63859;51.064;4.580;2023-01-08T11:01:27;9.30;99.90
75262;DHT22;63859;51.064;4.580;2023-01-08T11:03:56;9.30;99.90
75262;DHT22;63859;51.064;4.580;2023-01-08T11:06:36;9.30;99.90
75262;DHT22;63859;51.064;4.580;2023-01-08T11:09:22;9.30;99.90
75262;DHT22;63859;51.064;4.580;2023-01-08T11:11:48;9.40;99.90
75262;DHT22;63859;51.064;4.580;2023-01-08T11:14:21;9.40;99.90
75262;DHT22;63859;51.064;4.580;2023-01-08T11:16:47;9.40;99.90
75262;DHT22;63859;51.064;4.580;2023-01-08T11:19:19;9.50;99.90
75262;DHT22;63859;51.064;4.580;2023-01-08T11:22:05;9.50;99.90
75262;DHT22;63859;51.064;4.580;2023-01-08T11:24:37;9.50;99.90
75262;DHT22;63859;51.064;4.580;2023-01-08T11:27:13;9.50;99.90
75262;DHT22;63859;51.064;4.580;2023-01-08T11:29:43;9.50;99.90
75262;DHT22;63859;51.064;4.580;2023-01-08T11:37:55;9.60;99.90
75262;DHT22;63859;51.064;4.580;2023-01-08T11:40:49;9.60;99.90
75262;DHT22;63859;51.064;4.580;2023-01-08T11:46:23;9.80;99.90
75262;DHT22;63859;51.064;4.580;2023-01-08T11:51:42;10.00;99.90
75262;DHT22;63859;51.064;4.580;2023-01-08T11:54:34;10.00;99.90
75262;DHT22;63859;51.064;4.580;2023-01-08T11:57:31;10.10;99.90
75262;DHT22;63859;51.064;4.580;2023-01-08T12:02:52;10.00;99.90
75262;DHT22;63859;51.064;4.580;2023-01-08T12:08:00;9.90;99.90
75262;DHT22;63859;51.064;4.580;2023-01-08T12:10:36;10.00;99.90
75262;DHT22;63859;51.064;4.580;2023-01-08T12:16:09;10.10;99.90
75262;DHT22;63859;51.064;4.580;2023-01-08T12:24:44;10.60;99.90
75262;DHT22;63859;51.064;4.580;2023-01-08T12:30:15;10.60;99.90
75262;DHT22;63859;51.064;4.580;2023-01-08T12:32:49;10.40;99.90
75262;DHT22;63859;51.064;4.580;2023-01-08T12:35:28;10.40;99.90
75262;DHT22;63859;51.064;4.580;2023-01-08T12:40:35;10.30;99.90
75262;DHT22;63859;51.064;4.580;2023-01-08T12:43:10;10.20;99.90
75262;DHT22;63859;51.064;4.580;2023-01-08T12:45:42;10.20;99.90
75262;DHT22;63859;51.064;4.580;2023-01-08T12:48:16;10.40;99.90
75262;DHT22;63859;51.064;4.580;2023-01-08T12:56:48;10.20;99.90
75262;DHT22;63859;51.064;4.580;2023-01-08T13:02:14;10.20;99.90
75262;DHT22;63859;51.064;4.580;2023-01-08T13:04:46;10.30;99.90
75262;DHT22;63859;51.064;4.580;2023-01-08T13:07:29;10.30;99.90
75262;DHT22;63859;51.064;4.580;2023-01-08T13:10:27;10.30;99.90
75262;DHT22;63859;51.064;4.580;2023-01-08T13:12:55;10.50;99.90
75262;DHT22;63859;51.064;4.580;2023-01-08T13:15:24;10.50;99.90
75262;DHT22;63859;51.064;4.580;2023-01-08T13:17:53;10.40;99.90
75262;DHT22;63859;51.064;4.580;2023-01-08T13:20:31;10.50;99.90
75262;DHT22;63859;51.064;4.580;2023-01-08T13:23:01;10.60;99.90
75262;DHT22;63859;51.064;4.580;2023-01-08T13:25:31;10.70;99.90
75262;DHT22;63859;51.064;4.580;2023-01-08T13:27:58;10.70;99.90
75262;DHT22;63859;51.064;4.580;2023-01-08T13:30:40;10.80;99.90
75262;DHT22;63859;51.064;4.580;2023-01-08T13:33:43;10.90;99.90
75262;DHT22;63859;51.064;4.580;2023-01-08T13:36:25;11.00;99.90
75262;DHT22;63859;51.064;4.580;2023-01-08T13:44:31;11.00;99.90
75262;DHT22;63859;51.064;4.580;2023-01-08T13:47:05;11.00;99.90
75262;DHT22;63859;51.064;4.580;2023-01-08T13:49:35;11.00;99.90
75262;DHT22;63859;51.064;4.580;2023-01-08T13:52:02;10.90;99.90
75262;DHT22;63859;51.064;4.580;2023-01-08T13:54:32;10.80;99.90
75262;DHT22;63859;51.064;4.580;2023-01-08T13:57:07;10.70;99.90
75262;DHT22;63859;51.064;4.580;2023-01-08T14:02:42;10.60;99.90
75262;DHT22;63859;51.064;4.580;2023-01-08T14:05:31;10.50;99.90
75262;DHT22;63859;51.064;4.580;2023-01-08T14:07:59;10.60;99.90
75262;DHT22;63859;51.064;4.580;2023-01-08T14:10:26;10.60;99.90
75262;DHT22;63859;51.064;4.580;2023-01-08T14:12:55;10.70;99.90
75262;DHT22;63859;51.064;4.580;2023-01-08T14:15:26;10.70;99.90
75262;DHT22;63859;51.064;4.580;2023-01-08T14:17:54;10.80;99.90
75262;DHT22;63859;51.064;4.580;2023-01-08T14:20:27;10.90;99.90
75262;DHT22;63859;51.064;4.580;2023-01-08T14:22:54;10.90;99.90
75262;DHT22;63859;51.064;4.580;2023-01-08T14:25:20;10.80;99.90
75262;DHT22;63859;51.064;4.580;2023-01-08T14:27:55;10.70;99.90
75262;DHT22;63859;51.064;4.580;2023-01-08T14:30:21;10.60;99.90
75262;DHT22;63859;51.064;4.580;2023-01-08T14:32:47;10.50;99.90
75262;DHT22;63859;51.064;4.580;2023-01-08T14:35:16;10.40;99.90
75262;DHT22;63859;51.064;4.580;2023-01-08T14:37:42;10.40;99.90
75262;DHT22;63859;51.064;4.580;2023-01-08T14:40:16;10.40;99.90
75262;DHT22;63859;51.064;4.580;2023-01-08T14:42:43;10.30;99.90
75262;DHT22;63859;51.064;4.580;2023-01-08T14:45:29;10.30;99.90
75262;DHT22;63859;51.064;4.580;2023-01-08T14:48:13;10.30;99.90
75262;DHT22;63859;51.064;4.580;2023-01-08T14:50:42;10.20;99.90
75262;DHT22;63859;51.064;4.580;2023-01-08T14:55:45;10.20;99.90
75262;DHT22;63859;51.064;4.580;2023-01-08T14:58:17;10.20;99.90
75262;DHT22;63859;51.064;4.580;2023-01-08T15:00:51;10.20;99.90
75262;DHT22;63859;51.064;4.580;2023-01-08T15:03:40;10.10;99.90
75262;DHT22;63859;51.064;4.580;2023-01-08T15:06:07;10.10;99.90
75262;DHT22;63859;51.064;4.580;2023-01-08T15:08:41;10.00;99.90
75262;DHT22;63859;51.064;4.580;2023-01-08T15:11:27;10.10;99.90
75262;DHT22;63859;51.064;4.580;2023-01-08T15:13:55;10.00;99.90
75262;DHT22;63859;51.064;4.580;2023-01-08T15:16:31;10.00;99.90
75262;DHT22;63859;51.064;4.580;2023-01-08T15:19:09;10.00;99.90
75262;DHT22;63859;51.064;4.580;2023-01-08T15:21:36;10.00;99.90
75262;DHT22;63859;51.064;4.580;2023-01-08T15:24:03;9.90;99.90
75262;DHT22;63859;51.064;4.580;2023-01-08T15:26:30;9.90;99.90
75262;DHT22;63859;51.064;4.580;2023-01-08T15:29:00;9.90;99.90
75262;DHT22;63859;51.064;4.580;2023-01-08T15:34:07;9.90;99.90
75262;DHT22;63859;51.064;4.580;2023-01-08T15:36:33;9.80;99.90
75262;DHT22;63859;51.064;4.580;2023-01-08T15:38:59;9.80;99.90
75262;DHT22;63859;51.064;4.580;2023-01-08T15:41:24;9.70;99.90
75262;DHT22;63859;51.064;4.580;2023-01-08T15:44:09;9.80;99.90
75262;DHT22;63859;51.064;4.580;2023-01-08T15:46:37;9.80;99.90
75262;DHT22;63859;51.064;4.580;2023-01-08T15:49:03;9.80;99.90
75262;DHT22;63859;51.064;4.580;2023-01-08T15:51:33;9.90;99.90
75262;DHT22;63859;51.064;4.580;2023-01-08T15:54:00;9.70;99.90
75262;DHT22;63859;51.064;4.580;2023-01-08T15:56:26;9.70;99.90
75262;DHT22;63859;51.064;4.580;2023-01-08T15:58:51;9.70;99.90
75262;DHT22;63859;51.064;4.580;2023-01-08T16:01:18;9.80;99.90
75262;DHT22;63859;51.064;4.580;2023-01-08T16:03:43;9.60;99.90
75262;DHT22;63859;51.064;4.580;2023-01-08T16:06:09;9.60;99.90
75262;DHT22;63859;51.064;4.580;2023-01-08T16:08:35;9.60;99.90
75262;DHT22;63859;51.064;4.580;2023-01-08T16:11:00;9.60;99.90
75262;DHT22;63859;51.064;4.580;2023-01-08T16:13:26;9.60;99.90
75262;DHT22;63859;51.064;4.580;2023-01-08T16:15:52;9.60;99.90
75262;DHT22;63859;51.064;4.580;2023-01-08T16:18:17;9.70;99.90
75262;DHT22;63859;51.064;4.580;2023-01-08T16:20:43;9.70;99.90
75262;DHT22;63859;51.064;4.580;2023-01-08T16:23:08;9.60;99.90
75262;DHT22;63859;51.064;4.580;2023-01-08T16:25:37;9.60;99.90
75262;DHT22;63859;51.064;4.580;2023-01-08T16:28:02;9.60;99.90
75262;DHT22;63859;51.064;4.580;2023-01-08T16:30:28;9.60;99.90
75262;DHT22;63859;51.064;4.580;2023-01-08T16:32:53;9.60;99.90
75262;DHT22;63859;51.064;4.580;2023-01-08T16:35:20;9.60;99.90
75262;DHT22;63859;51.064;4.580;2023-01-08T16:37:46;9.60;99.90
75262;DHT22;63859;51.064;4.580;2023-01-08T16:40:12;9.60;99.90
75262;DHT22;63859;51.064;4.580;2023-01-08T16:42:37;9.60;99.90
75262;DHT22;63859;51.064;4.580;2023-01-08T16:45:04;9.60;99.90
75262;DHT22;63859;51.064;4.580;2023-01-08T16:47:29;9.60;99.90
75262;DHT22;63859;51.064;4.580;2023-01-08T16:49:55;9.60;99.90
75262;DHT22;63859;51.064;4.580;2023-01-08T16:52:21;9.50;99.90
75262;DHT22;63859;51.064;4.580;2023-01-08T16:54:47;9.50;99.90
75262;DHT22;63859;51.064;4.580;2023-01-08T16:57:13;9.50;99.90
75262;DHT22;63859;51.064;4.580;2023-01-08T16:59:39;9.50;99.90
75262;DHT22;63859;51.064;4.580;2023-01-08T17:02:05;9.50;99.90
75262;DHT22;63859;51.064;4.580;2023-01-08T17:04:31;9.40;99.90
75262;DHT22;63859;51.064;4.580;2023-01-08T17:06:56;9.40;99.90